Observations for CRANFIELD, United Kingdom (EGTC)

EGTC 201620Z 24015KT 210V280 9999 SCT027 23/16 Q1018
EGTC 201550Z 24015KT 200V270 9999 SCT027 23/16 Q1018
EGTC 201520Z 24014KT 210V300 9999 SCT027 23/17 Q1018
EGTC 201450Z 24015KT 9999 SCT027 22/16 Q1018
EGTC 201420Z 23004KT 9999 SCT023 23/17 Q1018
EGTC 201350Z 25012KT 9999 BKN022 21/17 Q1018
EGTC 201320Z 24014KT 9999 BKN030 22/17 Q1018
EGTC 201250Z 25013KT 9999 BKN026 22/17 Q1018
EGTC 201220Z 23014KT 9999 BKN026 22/16 Q1018
EGTC 201050Z 23014KT 9999 SCT022 23/17 Q1018
EGTC 201020Z 24015KT 9999 SCT026 23/17 Q1018
EGTC 200950Z 23013KT 210V270 9999 SCT019 21/16 Q1019
EGTC 200920Z 23014KT 9999 BKN016 21/16 Q1019
EGTC 200850Z 22015KT 9999 SCT015 20/16 Q1019
EGTC 200820Z 22016KT 9999 SCT012 19/16 Q1019
EGTC 200750Z 23012KT 9999 BKN010 18/16 Q1019
EGTC 200720Z 22013KT 190V250 9999 SCT008 BKN013 17/16 Q1019 
EGTC 200650Z 22013KT 9999 BKN008 17/16 Q1019
EGTC 200620Z 22013KT 9999 BKN009 17/16 Q1019
EGTC 191650Z 24008KT 200V270 9999 SCT030 BKN045 22/16 Q1021 
EGTC 191620Z 23012KT 200V270 9999 FEW028 BKN045 23/17 Q1021